Huvudsida
METAR-TAF:

METAR-TAF

Flygplatser :

La Chaux-de-Fonds, Schweiz

latitud: 47-05-03N, longitud: 006-47-37E, höjd: 1027 m

Aktuellt väderrapport

Denna rapport gjordes för 30 minuter sedan, klockan 04:20 UTC
Vind 12 kt från väst/sydväst, varierande mellan syd/sydväst och väst
Temperatur 5°C
Fuktighet 75%
Tryck 1017 hPa
Sikt 10 km eller mer
Få moln på en höjd av 2700 ft
Brutna moln på en höjd av 3200 ft
lätt regn

METAR: LSGC 070420Z AUTO 24012KT 200V260 9999 -RA FEW027 BKN032 05/01 Q1017

Tid: 05:50 (04:50 UTC)

Väderprognos

Denna rapport gjordes för 14 timmar och 25 minuter sedan, klockan 14:25 UTC
Prognos gäller från 06 kl. 15 UTC till 06 kl. 24 UTC
Vind 9 kt från sydväst
Sikt 10 km eller mer
Inga moln under 1 500 m eller inga cumulonimbus
Blir
från 06 kl. 20 UTC till 06 kl. 22 UTC
Sikt 10 km eller mer
Brutna moln på en höjd av 3500 ft

TAF: LSGC 061425Z 0615/0624 23009KT CAVOK BECMG 0620/0622 9999 BKN035

Aktuella väderrapporter och prognoser från 4000 flygplatser (METAR- och TAF-rapporter).

De tillgängliga stationerna syns som gula och röda prickar på kartan.

För musen över prickarna för att se namnen på stationerna.

Klicka sedan för att få väderrapporter och prognoser.

För att ändra kartan: Klicka på de gröna knapparna med ett svart kors på för att zooma in; den gröna knappen med ett streck på för att zooma ut; eller på de gröna pilarna för angränsande kartor.


METAR-TAF: